createdAt,value
2022-08-27T00:00:19.107Z,18.50
2022-08-27T00:02:46.149Z,17.40
2022-08-27T00:05:14.524Z,18.40
2022-08-27T00:07:41.701Z,18.10
2022-08-27T00:10:09.140Z,18.40
2022-08-27T00:12:36.160Z,18.30
2022-08-27T00:15:03.985Z,19.80
2022-08-27T00:17:30.665Z,18.30
2022-08-27T00:19:57.346Z,18.00
2022-08-27T00:22:24.015Z,18.10
2022-08-27T00:24:50.622Z,19.50
2022-08-27T00:27:17.887Z,17.50
2022-08-27T00:29:44.713Z,17.70
2022-08-27T00:32:11.341Z,17.70
2022-08-27T00:34:37.999Z,17.50
2022-08-27T00:37:06.630Z,19.50
2022-08-27T00:39:33.811Z,17.80
2022-08-27T00:42:01.138Z,17.60
2022-08-27T00:44:28.073Z,19.00
2022-08-27T00:46:56.853Z,18.90
2022-08-27T00:49:26.484Z,18.10
2022-08-27T00:51:55.753Z,18.90
2022-08-27T00:54:22.636Z,17.70
2022-08-27T00:56:51.363Z,19.50
2022-08-27T00:59:19.545Z,17.30
2022-08-27T01:02:05.335Z,17.00
2022-08-27T01:04:35.146Z,19.20
2022-08-27T01:07:02.542Z,17.80
2022-08-27T01:09:29.497Z,20.10
2022-08-27T01:11:57.324Z,19.10
2022-08-27T01:14:24.632Z,20.00
2022-08-27T01:16:54.336Z,19.00
2022-08-27T01:19:30.294Z,19.20
2022-08-27T01:22:06.547Z,18.30
2022-08-27T01:24:36.221Z,18.30
2022-08-27T01:27:04.233Z,18.20
2022-08-27T01:29:32.992Z,17.40
2022-08-27T01:32:05.581Z,18.40
2022-08-27T01:34:32.678Z,17.40
2022-08-27T01:36:59.298Z,17.60
2022-08-27T01:39:26.031Z,18.90
2022-08-27T01:41:52.769Z,17.40
2022-08-27T01:44:21.030Z,17.70
2022-08-27T01:46:48.019Z,17.50
2022-08-27T01:49:14.673Z,17.10
2022-08-27T01:51:41.787Z,17.60
2022-08-27T01:54:08.466Z,17.60
2022-08-27T01:56:35.076Z,19.40
2022-08-27T01:59:01.768Z,17.30
2022-08-27T02:01:28.442Z,19.40
2022-08-27T02:03:55.749Z,17.10
2022-08-27T02:06:22.410Z,17.30
2022-08-27T02:08:49.057Z,17.60
2022-08-27T02:11:15.711Z,17.70
2022-08-27T02:13:42.393Z,19.80
2022-08-27T02:16:09.210Z,17.20
2022-08-27T02:18:37.076Z,17.70
2022-08-27T02:21:04.155Z,19.10
2022-08-27T02:23:30.781Z,17.50
2022-08-27T02:25:57.434Z,17.80
2022-08-27T02:28:24.003Z,19.80
2022-08-27T02:30:50.643Z,17.30
2022-08-27T02:33:17.327Z,17.80
2022-08-27T02:35:44.352Z,17.80
2022-08-27T02:38:12.721Z,19.90
2022-08-27T02:40:39.952Z,17.40
2022-08-27T02:43:06.829Z,17.80
2022-08-27T02:45:33.732Z,17.80
2022-08-27T02:48:02.336Z,18.30
2022-08-27T02:50:29.010Z,18.30
2022-08-27T02:52:55.676Z,18.00
2022-08-27T02:55:22.533Z,17.60
2022-08-27T02:57:49.210Z,19.80
2022-08-27T03:00:16.912Z,17.40
2022-08-27T03:02:43.727Z,18.10
2022-08-27T03:05:11.721Z,19.00
2022-08-27T03:07:38.353Z,19.40
2022-08-27T03:10:05.486Z,17.20
2022-08-27T03:12:32.154Z,17.90
2022-08-27T03:14:58.842Z,17.10
2022-08-27T03:17:44.139Z,18.10
2022-08-27T03:20:12.380Z,17.10
2022-08-27T03:22:40.255Z,18.00
2022-08-27T03:25:07.070Z,17.40
2022-08-27T03:27:33.646Z,18.10
2022-08-27T03:30:04.030Z,17.50
2022-08-27T03:32:31.001Z,17.30
2022-08-27T03:34:58.663Z,17.50
2022-08-27T03:37:25.995Z,17.40
2022-08-27T03:39:53.115Z,18.10
2022-08-27T03:42:19.748Z,19.60
2022-08-27T03:44:46.416Z,18.10
2022-08-27T03:47:13.156Z,17.30
2022-08-27T03:49:39.962Z,18.90
2022-08-27T03:52:07.261Z,17.60
2022-08-27T03:54:34.848Z,17.70
2022-08-27T03:57:01.686Z,19.30
2022-08-27T03:59:28.339Z,18.80
2022-08-27T04:01:55.023Z,19.00
2022-08-27T04:04:21.799Z,17.50
2022-08-27T04:06:48.427Z,17.50
2022-08-27T04:09:15.060Z,17.00
2022-08-27T04:11:41.757Z,17.40
2022-08-27T04:14:20.702Z,17.50
2022-08-27T04:16:54.813Z,19.90
2022-08-27T04:19:26.968Z,17.40
2022-08-27T04:21:54.592Z,19.60
2022-08-27T04:24:21.272Z,19.80
2022-08-27T04:26:48.024Z,17.60
2022-08-27T04:29:14.641Z,19.10
2022-08-27T04:31:41.632Z,17.60
2022-08-27T04:34:08.498Z,17.20
2022-08-27T04:36:35.153Z,18.20
2022-08-27T04:39:01.887Z,17.50
2022-08-27T04:41:29.083Z,19.90
2022-08-27T04:43:56.824Z,19.60
2022-08-27T04:46:24.576Z,17.30
2022-08-27T04:48:52.091Z,17.50
2022-08-27T04:51:19.455Z,17.60
2022-08-27T04:53:47.721Z,16.80
2022-08-27T04:56:16.214Z,17.30
2022-08-27T04:58:43.452Z,19.50
2022-08-27T05:01:15.238Z,17.30
2022-08-27T05:03:41.911Z,18.70
2022-08-27T05:06:08.668Z,19.20
2022-08-27T05:08:35.325Z,18.20
2022-08-27T05:11:02.289Z,17.30
2022-08-27T05:13:29.083Z,17.00
2022-08-27T05:16:00.571Z,17.00
2022-08-27T05:18:27.308Z,18.20
2022-08-27T05:20:54.174Z,18.30
2022-08-27T05:23:21.452Z,19.90
2022-08-27T05:25:49.389Z,17.70
2022-08-27T05:28:16.866Z,17.30
2022-08-27T05:30:45.227Z,17.80
2022-08-27T05:33:24.060Z,17.80
2022-08-27T05:35:52.332Z,17.60
2022-08-27T05:38:19.877Z,19.60
2022-08-27T05:40:48.048Z,17.50
2022-08-27T05:43:16.102Z,17.80
2022-08-27T05:49:19.498Z,18.40
2022-08-27T06:29:24.497Z,18.00
2022-08-27T06:31:52.691Z,18.50
2022-08-27T06:34:19.395Z,19.00
2022-08-27T06:36:46.033Z,19.50
2022-08-27T06:39:15.371Z,16.80
2022-08-27T06:41:43.733Z,18.60
2022-08-27T06:44:11.172Z,16.70
2022-08-27T06:46:38.669Z,17.30
2022-08-27T06:49:05.744Z,17.60
2022-08-27T06:51:33.287Z,17.30
2022-08-27T06:54:02.311Z,17.60
2022-08-27T06:56:29.280Z,19.00
2022-08-27T06:58:57.509Z,17.80
2022-08-27T07:01:32.050Z,18.30
2022-08-27T07:04:00.617Z,18.30
2022-08-27T07:06:29.255Z,20.20
2022-08-27T07:09:02.428Z,19.70
2022-08-27T07:11:32.002Z,18.90
2022-08-27T07:13:59.271Z,19.30
2022-08-27T07:17:25.425Z,18.60
2022-08-27T07:19:57.458Z,19.40
2022-08-27T07:28:58.333Z,18.40
2022-08-27T07:31:26.687Z,19.80
2022-08-27T07:33:53.517Z,19.50
2022-08-27T07:36:21.300Z,19.40
2022-08-27T07:50:08.514Z,18.80
2022-08-27T07:52:35.375Z,18.00
2022-08-27T07:55:02.198Z,19.40
2022-08-27T07:57:29.183Z,18.80
2022-08-27T07:59:55.805Z,17.40
2022-08-27T08:02:25.573Z,19.60
2022-08-27T08:07:19.325Z,18.70
2022-08-27T08:09:45.966Z,18.80
2022-08-27T08:12:12.766Z,17.90
2022-08-27T08:19:37.176Z,19.20
2022-08-27T08:22:06.059Z,19.00
2022-08-27T08:32:00.683Z,19.20
2022-08-27T08:34:28.867Z,19.50
2022-08-27T08:44:19.596Z,19.50
2022-08-27T08:54:14.038Z,19.50
2022-08-27T08:56:43.517Z,19.80
2022-08-27T08:59:14.361Z,19.50
2022-08-27T09:01:41.460Z,19.10
2022-08-27T09:19:02.063Z,20.00
2022-08-27T09:24:02.924Z,20.00
2022-08-27T09:26:30.396Z,20.30
2022-08-27T09:29:16.321Z,19.70
2022-08-27T09:32:03.221Z,19.80
2022-08-27T09:34:35.667Z,19.80
2022-08-27T09:37:02.363Z,19.70
2022-08-27T09:39:32.521Z,19.90
2022-08-27T09:41:59.419Z,20.00
2022-08-27T09:44:26.099Z,19.90
2022-08-27T09:46:54.278Z,19.70
2022-08-27T09:49:21.187Z,20.20
2022-08-27T09:59:19.662Z,21.10
2022-08-27T10:06:50.354Z,21.00
2022-08-27T10:09:23.442Z,21.70
2022-08-27T10:48:51.104Z,22.10
2022-08-27T11:02:23.294Z,22.10
2022-08-27T11:04:52.598Z,22.20
2022-08-27T11:07:31.567Z,21.30
2022-08-27T11:32:25.922Z,22.50
2022-08-27T11:35:01.171Z,23.00
2022-08-27T11:37:39.785Z,23.10
2022-08-27T11:40:25.473Z,23.80
2022-08-27T11:42:55.107Z,23.30
2022-08-27T11:48:08.187Z,22.60
2022-08-27T11:50:34.932Z,22.80
2022-08-27T11:53:03.827Z,23.90
2022-08-27T11:55:30.546Z,24.40
2022-08-27T11:58:24.204Z,23.20
2022-08-27T12:00:53.596Z,22.70
2022-08-27T12:03:20.204Z,24.20
2022-08-27T12:05:48.706Z,22.40
2022-08-27T12:08:20.315Z,24.30
2022-08-27T12:11:00.221Z,22.80
2022-08-27T12:13:38.195Z,23.00
2022-08-27T12:16:17.025Z,23.00
2022-08-27T12:18:46.756Z,23.00
2022-08-27T12:21:16.479Z,22.80
2022-08-27T12:23:46.968Z,22.70
2022-08-27T12:26:17.170Z,22.70
2022-08-27T12:28:43.812Z,22.70
2022-08-27T12:31:10.704Z,22.20
2022-08-27T12:33:45.516Z,24.50
2022-08-27T12:43:38.347Z,22.80
2022-08-27T12:46:11.064Z,23.10
2022-08-27T12:51:08.194Z,22.70
2022-08-27T12:53:51.840Z,22.60
2022-08-27T12:56:24.072Z,23.00
2022-08-27T12:58:56.818Z,24.50
2022-08-27T13:01:34.476Z,23.20
2022-08-27T13:04:05.373Z,22.90
2022-08-27T13:06:33.743Z,22.20
2022-08-27T13:09:01.688Z,24.30
2022-08-27T13:11:30.080Z,24.00
2022-08-27T13:14:07.390Z,23.40
2022-08-27T13:16:38.077Z,22.80
2022-08-27T13:19:06.985Z,23.80
2022-08-27T13:21:33.830Z,22.90
2022-08-27T13:24:02.166Z,22.00
2022-08-27T13:26:31.492Z,22.60
2022-08-27T13:29:03.340Z,22.90
2022-08-27T13:31:31.341Z,23.10
2022-08-27T13:33:58.683Z,22.40
2022-08-27T13:36:35.952Z,22.20
2022-08-27T13:39:03.668Z,23.40
2022-08-27T13:41:32.212Z,23.90
2022-08-27T13:44:05.686Z,22.60
2022-08-27T13:51:32.287Z,22.80
2022-08-27T13:54:18.672Z,22.70
2022-08-27T13:56:49.013Z,23.00
2022-08-27T13:59:16.396Z,23.10
2022-08-27T14:01:53.918Z,22.40
2022-08-27T14:04:23.001Z,22.30
2022-08-27T14:06:50.312Z,23.00
2022-08-27T14:09:20.057Z,24.80
2022-08-27T14:11:47.101Z,23.40
2022-08-27T14:14:14.586Z,22.90
2022-08-27T14:24:03.219Z,24.10
2022-08-27T14:26:30.212Z,24.30
2022-08-27T14:28:57.081Z,24.90
2022-08-27T14:41:14.079Z,26.70
2022-08-27T14:43:40.746Z,25.80
2022-08-27T14:48:34.511Z,25.50
2022-08-27T14:51:03.273Z,26.70
2022-08-27T15:03:25.329Z,28.60
2022-08-27T15:08:19.701Z,29.80
2022-08-27T15:10:46.446Z,30.50
2022-08-27T15:15:41.357Z,31.20
2022-08-27T15:18:08.218Z,30.70
2022-08-27T15:20:35.056Z,30.10
2022-08-27T15:23:02.009Z,28.70
2022-08-27T15:25:30.720Z,27.30
2022-08-27T15:40:14.561Z,26.50
2022-08-27T15:42:41.498Z,25.70
2022-08-27T15:45:08.789Z,25.30
2022-08-27T15:47:35.473Z,25.10
2022-08-27T15:50:02.286Z,26.20
2022-08-27T15:52:40.620Z,25.10
2022-08-27T15:55:21.127Z,26.20
2022-08-27T16:05:11.422Z,23.50
2022-08-27T16:07:38.054Z,23.00
2022-08-27T16:10:07.708Z,24.30
2022-08-27T16:12:35.387Z,23.20
2022-08-27T16:48:43.183Z,21.90
2022-08-27T16:51:13.847Z,21.70
2022-08-27T16:53:42.074Z,23.00
2022-08-27T16:56:09.358Z,21.10
2022-08-27T16:58:36.598Z,21.50
2022-08-27T17:01:05.328Z,23.30
2022-08-27T17:03:32.149Z,21.00
2022-08-27T17:05:58.983Z,20.40
2022-08-27T17:08:27.316Z,21.60
2022-08-27T17:10:54.573Z,20.40
2022-08-27T17:13:22.695Z,20.90
2022-08-27T17:15:55.229Z,20.90
2022-08-27T17:18:23.017Z,20.80
2022-08-27T17:20:50.392Z,21.00
2022-08-27T17:23:21.721Z,20.50
2022-08-27T17:25:48.662Z,20.70
2022-08-27T17:28:15.336Z,20.90
2022-08-27T17:30:42.004Z,20.90
2022-08-27T17:33:09.333Z,20.20
2022-08-27T17:35:36.260Z,20.50
2022-08-27T17:38:03.837Z,20.40
2022-08-27T17:40:30.526Z,20.30
2022-08-27T17:42:58.514Z,20.70
2022-08-27T17:45:25.099Z,20.90
2022-08-27T17:47:52.013Z,20.70
2022-08-27T17:50:18.661Z,20.70
2022-08-27T17:52:45.319Z,20.70
2022-08-27T17:55:12.153Z,21.30
2022-08-27T17:57:41.145Z,19.90
2022-08-27T18:00:09.696Z,19.40
2022-08-27T18:02:37.633Z,20.50
2022-08-27T18:05:05.679Z,20.50
2022-08-27T18:07:34.745Z,20.40
2022-08-27T18:10:04.696Z,20.30
2022-08-27T18:12:31.436Z,20.70
2022-08-27T18:15:18.368Z,19.60
2022-08-27T18:20:13.596Z,20.20
2022-08-27T18:25:08.143Z,20.20
2022-08-27T18:27:35.660Z,20.20
2022-08-27T18:30:02.891Z,20.30
2022-08-27T18:32:29.731Z,20.40
2022-08-27T18:34:57.276Z,19.80
2022-08-27T18:37:24.022Z,19.30
2022-08-27T18:39:50.751Z,21.40
2022-08-27T18:42:17.910Z,19.70
2022-08-27T18:44:45.765Z,19.00
2022-08-27T18:47:12.711Z,18.70
2022-08-27T18:49:39.363Z,19.00
2022-08-27T18:52:06.776Z,19.10
2022-08-27T18:54:33.400Z,20.30
2022-08-27T18:57:00.045Z,20.20
2022-08-27T19:04:21.243Z,19.40
2022-08-27T19:06:48.150Z,18.60
2022-08-27T19:09:16.008Z,19.10
2022-08-27T19:11:42.731Z,19.00
2022-08-27T19:14:09.392Z,18.30
2022-08-27T19:16:46.858Z,20.80
2022-08-27T19:19:14.584Z,19.20
2022-08-27T19:21:41.372Z,20.30
2022-08-27T19:24:08.501Z,20.50
2022-08-27T19:26:35.597Z,19.10
2022-08-27T19:29:02.279Z,19.30
2022-08-27T19:31:29.482Z,18.20
2022-08-27T19:33:56.210Z,20.40
2022-08-27T19:36:27.120Z,19.00
2022-08-27T19:38:54.911Z,18.50
2022-08-27T19:41:27.221Z,18.60
2022-08-27T19:43:54.641Z,19.00
2022-08-27T19:46:22.046Z,18.70
2022-08-27T19:48:49.191Z,18.80
2022-08-27T19:51:15.889Z,19.30
2022-08-27T19:53:42.553Z,20.20
2022-08-27T19:56:09.920Z,18.70
2022-08-27T19:58:36.759Z,19.30
2022-08-27T20:01:03.526Z,18.20
2022-08-27T20:03:30.255Z,18.60
2022-08-27T20:05:56.975Z,20.50
2022-08-27T20:08:23.626Z,18.90
2022-08-27T20:10:50.276Z,21.10
2022-08-27T20:13:17.280Z,19.20
2022-08-27T20:15:46.397Z,19.00
2022-08-27T20:18:15.000Z,18.70
2022-08-27T20:20:42.159Z,19.00
2022-08-27T20:23:09.083Z,18.80
2022-08-27T20:25:35.974Z,18.70
2022-08-27T20:28:12.435Z,18.90
2022-08-27T20:30:49.000Z,19.20
2022-08-27T20:33:16.485Z,18.80
2022-08-27T20:35:47.581Z,20.00
2022-08-27T20:38:22.232Z,19.90
2022-08-27T20:40:49.195Z,18.80
2022-08-27T20:43:28.829Z,20.70
2022-08-27T20:46:03.956Z,19.40
2022-08-27T20:48:31.650Z,19.00
2022-08-27T20:50:58.240Z,18.80
2022-08-27T20:53:25.873Z,18.70
2022-08-27T20:55:56.450Z,18.60
2022-08-27T20:58:43.069Z,18.60
2022-08-27T21:01:09.929Z,18.20
2022-08-27T21:03:36.615Z,18.50
2022-08-27T21:06:03.342Z,18.20
2022-08-27T21:08:30.379Z,18.30
2022-08-27T21:10:57.619Z,17.90
2022-08-27T21:13:25.158Z,19.50
2022-08-27T21:15:54.591Z,18.10
2022-08-27T21:18:29.773Z,19.60
2022-08-27T21:20:57.081Z,18.10
2022-08-27T21:23:25.313Z,17.80
2022-08-27T21:28:19.019Z,18.50
2022-08-27T21:35:40.654Z,18.40
2022-08-27T21:38:07.270Z,19.80
2022-08-27T21:40:34.134Z,18.10
2022-08-27T21:43:01.898Z,18.10
2022-08-27T21:45:28.572Z,18.50
2022-08-27T21:47:55.406Z,18.60
2022-08-27T21:50:22.505Z,17.90
2022-08-27T21:52:49.481Z,18.10
2022-08-27T21:55:16.876Z,17.80
2022-08-27T21:57:43.475Z,18.30
2022-08-27T22:02:40.884Z,18.50
2022-08-27T22:05:08.582Z,17.80
2022-08-27T22:07:35.344Z,18.50
2022-08-27T22:10:01.983Z,18.30
2022-08-27T22:12:28.640Z,17.90
2022-08-27T22:19:49.501Z,18.10
2022-08-27T22:22:16.093Z,17.90
2022-08-27T22:24:42.729Z,18.00
2022-08-27T22:27:09.378Z,18.00
2022-08-27T22:29:36.064Z,18.00
2022-08-27T22:32:02.854Z,18.00
2022-08-27T22:34:29.481Z,18.10
2022-08-27T22:36:56.111Z,17.90
2022-08-27T22:39:24.049Z,18.80
2022-08-27T22:41:51.894Z,19.00
2022-08-27T22:44:18.835Z,19.40
2022-08-27T22:46:45.603Z,17.60
2022-08-27T22:49:12.348Z,17.40
2022-08-27T22:51:38.975Z,17.30
2022-08-27T22:54:05.611Z,17.50
2022-08-27T22:56:32.243Z,18.50
2022-08-27T22:58:59.035Z,19.20
2022-08-27T23:03:53.715Z,17.80
2022-08-27T23:06:20.431Z,17.00
2022-08-27T23:08:47.105Z,17.10
2022-08-27T23:11:14.458Z,17.20
2022-08-27T23:13:41.229Z,17.20
2022-08-27T23:16:09.202Z,17.50
2022-08-27T23:18:36.225Z,17.10
2022-08-27T23:21:05.461Z,18.30
2022-08-27T23:23:32.611Z,17.00
2022-08-27T23:26:17.963Z,17.10
2022-08-27T23:28:45.082Z,18.00
2022-08-27T23:31:12.139Z,17.40
2022-08-27T23:33:38.951Z,17.30
2022-08-27T23:36:05.960Z,17.50
2022-08-27T23:38:33.801Z,17.90
2022-08-27T23:41:00.484Z,17.60
2022-08-27T23:43:27.867Z,17.20
2022-08-27T23:45:54.518Z,17.80
2022-08-27T23:48:21.347Z,17.80
2022-08-27T23:50:48.013Z,17.10
2022-08-27T23:53:14.732Z,18.70
2022-08-27T23:55:41.579Z,19.10
2022-08-27T23:58:08.800Z,19.50
